sensor_id;sensor_type;location;lat;lon;timestamp;temperature;humidity
18741;DHT22;9499;52.472;13.448;2023-05-10T00:02:26;13.80;1.00
18741;DHT22;9499;52.472;13.448;2023-05-10T00:04:52;13.80;1.00
18741;DHT22;9499;52.472;13.448;2023-05-10T00:07:19;13.80;1.00
18741;DHT22;9499;52.472;13.448;2023-05-10T00:09:46;13.70;25.30
18741;DHT22;9499;52.472;13.448;2023-05-10T00:12:13;13.70;72.70
18741;DHT22;9499;52.472;13.448;2023-05-10T00:14:39;13.70;21.30
18741;DHT22;9499;52.472;13.448;2023-05-10T00:17:06;13.70;4.30
18741;DHT22;9499;52.472;13.448;2023-05-10T00:19:32;13.70;1.00
18741;DHT22;9499;52.472;13.448;2023-05-10T00:21:59;13.70;1.00
18741;DHT22;9499;52.472;13.448;2023-05-10T00:24:25;13.70;17.00
18741;DHT22;9499;52.472;13.448;2023-05-10T00:26:53;13.70;13.10
18741;DHT22;9499;52.472;13.448;2023-05-10T00:29:19;13.70;40.00
18741;DHT22;9499;52.472;13.448;2023-05-10T00:31:46;13.60;73.50
18741;DHT22;9499;52.472;13.448;2023-05-10T00:34:12;13.60;99.90
18741;DHT22;9499;52.472;13.448;2023-05-10T00:36:39;13.50;99.90
18741;DHT22;9499;52.472;13.448;2023-05-10T00:39:06;13.50;99.90
18741;DHT22;9499;52.472;13.448;2023-05-10T00:41:33;13.50;99.90
18741;DHT22;9499;52.472;13.448;2023-05-10T00:44:00;13.50;99.90
18741;DHT22;9499;52.472;13.448;2023-05-10T00:46:28;13.50;99.90
18741;DHT22;9499;52.472;13.448;2023-05-10T00:48:55;13.40;99.90
18741;DHT22;9499;52.472;13.448;2023-05-10T00:51:21;13.40;99.90
18741;DHT22;9499;52.472;13.448;2023-05-10T00:53:48;13.40;99.90
18741;DHT22;9499;52.472;13.448;2023-05-10T00:56:16;13.30;99.90
18741;DHT22;9499;52.472;13.448;2023-05-10T00:58:42;13.30;99.90
18741;DHT22;9499;52.472;13.448;2023-05-10T01:01:10;13.30;99.90
18741;DHT22;9499;52.472;13.448;2023-05-10T01:03:39;13.20;99.90
18741;DHT22;9499;52.472;13.448;2023-05-10T01:06:07;13.20;1.00
18741;DHT22;9499;52.472;13.448;2023-05-10T01:08:35;13.20;1.00
18741;DHT22;9499;52.472;13.448;2023-05-10T01:11:01;13.20;1.00
18741;DHT22;9499;52.472;13.448;2023-05-10T01:13:31;13.10;1.00
18741;DHT22;9499;52.472;13.448;2023-05-10T01:15:59;13.10;1.00
18741;DHT22;9499;52.472;13.448;2023-05-10T01:18:29;13.10;1.00
18741;DHT22;9499;52.472;13.448;2023-05-10T01:21:04;13.00;1.00
18741;DHT22;9499;52.472;13.448;2023-05-10T01:26:45;13.00;96.20
18741;DHT22;9499;52.472;13.448;2023-05-10T01:32:27;12.90;99.90
18741;DHT22;9499;52.472;13.448;2023-05-10T01:35:01;12.90;99.90
18741;DHT22;9499;52.472;13.448;2023-05-10T01:37:36;12.90;99.90
18741;DHT22;9499;52.472;13.448;2023-05-10T01:40:13;12.80;1.00
18741;DHT22;9499;52.472;13.448;2023-05-10T01:42:47;12.70;1.00
18741;DHT22;9499;52.472;13.448;2023-05-10T01:45:21;12.60;1.00
18741;DHT22;9499;52.472;13.448;2023-05-10T01:47:58;12.60;1.00
18741;DHT22;9499;52.472;13.448;2023-05-10T01:50:27;12.60;1.00
18741;DHT22;9499;52.472;13.448;2023-05-10T01:52:57;12.60;1.00
18741;DHT22;9499;52.472;13.448;2023-05-10T01:55:26;12.60;1.00
18741;DHT22;9499;52.472;13.448;2023-05-10T01:58:00;12.50;1.00
18741;DHT22;9499;52.472;13.448;2023-05-10T02:00:28;12.50;1.00
18741;DHT22;9499;52.472;13.448;2023-05-10T02:02:57;12.40;99.90
18741;DHT22;9499;52.472;13.448;2023-05-10T02:05:24;12.40;1.00
18741;DHT22;9499;52.472;13.448;2023-05-10T02:07:51;12.40;1.00
18741;DHT22;9499;52.472;13.448;2023-05-10T02:10:19;12.40;92.70
18741;DHT22;9499;52.472;13.448;2023-05-10T02:12:47;12.30;99.90
18741;DHT22;9499;52.472;13.448;2023-05-10T02:15:18;12.40;10.80
18741;DHT22;9499;52.472;13.448;2023-05-10T02:17:46;12.30;76.90
18741;DHT22;9499;52.472;13.448;2023-05-10T02:20:16;12.40;1.00
18741;DHT22;9499;52.472;13.448;2023-05-10T02:22:43;12.40;1.00
18741;DHT22;9499;52.472;13.448;2023-05-10T02:25:11;12.40;99.90
18741;DHT22;9499;52.472;13.448;2023-05-10T02:27:41;12.30;99.90
18741;DHT22;9499;52.472;13.448;2023-05-10T02:30:10;12.30;99.90
18741;DHT22;9499;52.472;13.448;2023-05-10T02:32:37;12.20;99.90
18741;DHT22;9499;52.472;13.448;2023-05-10T02:35:05;12.20;1.00
18741;DHT22;9499;52.472;13.448;2023-05-10T02:37:34;12.20;99.90
18741;DHT22;9499;52.472;13.448;2023-05-10T02:40:02;12.20;99.90
18741;DHT22;9499;52.472;13.448;2023-05-10T02:42:33;12.20;99.90
18741;DHT22;9499;52.472;13.448;2023-05-10T02:45:03;12.20;99.90
18741;DHT22;9499;52.472;13.448;2023-05-10T02:47:31;12.10;99.90
18741;DHT22;9499;52.472;13.448;2023-05-10T02:49:58;12.10;1.00
18741;DHT22;9499;52.472;13.448;2023-05-10T02:52:27;12.00;1.00
18741;DHT22;9499;52.472;13.448;2023-05-10T02:54:59;12.00;1.00
18741;DHT22;9499;52.472;13.448;2023-05-10T02:57:29;12.00;1.00
18741;DHT22;9499;52.472;13.448;2023-05-10T02:59:58;12.00;1.00
18741;DHT22;9499;52.472;13.448;2023-05-10T03:02:25;12.00;1.00
18741;DHT22;9499;52.472;13.448;2023-05-10T03:04:52;12.00;99.90
18741;DHT22;9499;52.472;13.448;2023-05-10T03:07:18;11.90;99.90
18741;DHT22;9499;52.472;13.448;2023-05-10T03:09:46;11.90;1.00
18741;DHT22;9499;52.472;13.448;2023-05-10T03:12:20;11.90;1.00
18741;DHT22;9499;52.472;13.448;2023-05-10T03:14:57;11.90;99.90
18741;DHT22;9499;52.472;13.448;2023-05-10T03:17:30;11.80;95.30
18741;DHT22;9499;52.472;13.448;2023-05-10T03:20:04;11.80;99.90
18741;DHT22;9499;52.472;13.448;2023-05-10T03:22:37;11.90;1.00
18741;DHT22;9499;52.472;13.448;2023-05-10T03:25:06;11.80;99.90
18741;DHT22;9499;52.472;13.448;2023-05-10T03:27:35;11.80;58.60
18741;DHT22;9499;52.472;13.448;2023-05-10T03:30:03;11.80;1.00
18741;DHT22;9499;52.472;13.448;2023-05-10T03:32:31;11.70;1.00
18741;DHT22;9499;52.472;13.448;2023-05-10T03:35:00;11.80;1.00
18741;DHT22;9499;52.472;13.448;2023-05-10T03:37:26;11.70;1.00
18741;DHT22;9499;52.472;13.448;2023-05-10T03:39:53;11.70;1.00
18741;DHT22;9499;52.472;13.448;2023-05-10T03:42:19;11.60;99.90
18741;DHT22;9499;52.472;13.448;2023-05-10T03:44:47;11.60;99.90
18741;DHT22;9499;52.472;13.448;2023-05-10T03:47:14;11.50;99.90
18741;DHT22;9499;52.472;13.448;2023-05-10T03:49:41;11.60;99.90
18741;DHT22;9499;52.472;13.448;2023-05-10T03:52:07;11.70;99.90
18741;DHT22;9499;52.472;13.448;2023-05-10T03:54:34;11.70;1.00
18741;DHT22;9499;52.472;13.448;2023-05-10T03:57:00;11.60;1.00
18741;DHT22;9499;52.472;13.448;2023-05-10T03:59:28;11.60;1.00
18741;DHT22;9499;52.472;13.448;2023-05-10T04:01:56;11.60;1.00
18741;DHT22;9499;52.472;13.448;2023-05-10T04:04:23;11.60;1.00
18741;DHT22;9499;52.472;13.448;2023-05-10T04:06:49;11.60;1.00
18741;DHT22;9499;52.472;13.448;2023-05-10T04:09:16;11.60;48.80
18741;DHT22;9499;52.472;13.448;2023-05-10T04:11:43;11.60;1.00
18741;DHT22;9499;52.472;13.448;2023-05-10T04:14:09;11.50;99.90
18741;DHT22;9499;52.472;13.448;2023-05-10T04:16:36;11.50;99.90
18741;DHT22;9499;52.472;13.448;2023-05-10T04:19:03;11.50;99.90
18741;DHT22;9499;52.472;13.448;2023-05-10T04:21:30;11.50;99.90
18741;DHT22;9499;52.472;13.448;2023-05-10T04:23:56;11.60;1.00
18741;DHT22;9499;52.472;13.448;2023-05-10T04:26:23;11.60;1.00
18741;DHT22;9499;52.472;13.448;2023-05-10T04:28:50;11.60;99.90
18741;DHT22;9499;52.472;13.448;2023-05-10T04:31:16;11.70;1.00
18741;DHT22;9499;52.472;13.448;2023-05-10T04:33:43;11.70;1.00
18741;DHT22;9499;52.472;13.448;2023-05-10T04:36:11;11.70;1.00
18741;DHT22;9499;52.472;13.448;2023-05-10T04:38:37;11.70;1.00
18741;DHT22;9499;52.472;13.448;2023-05-10T04:41:04;11.70;1.00
18741;DHT22;9499;52.472;13.448;2023-05-10T04:43:31;11.70;1.00
18741;DHT22;9499;52.472;13.448;2023-05-10T04:45:58;11.70;1.00
18741;DHT22;9499;52.472;13.448;2023-05-10T04:48:24;11.70;1.00
18741;DHT22;9499;52.472;13.448;2023-05-10T04:50:51;11.70;99.90
18741;DHT22;9499;52.472;13.448;2023-05-10T04:53:18;11.70;1.00
18741;DHT22;9499;52.472;13.448;2023-05-10T04:55:45;11.70;1.00
18741;DHT22;9499;52.472;13.448;2023-05-10T04:58:12;11.80;1.00
18741;DHT22;9499;52.472;13.448;2023-05-10T05:00:38;11.80;1.00
18741;DHT22;9499;52.472;13.448;2023-05-10T05:03:06;11.80;1.00
18741;DHT22;9499;52.472;13.448;2023-05-10T05:05:33;11.80;1.00
18741;DHT22;9499;52.472;13.448;2023-05-10T05:07:59;11.90;1.00
18741;DHT22;9499;52.472;13.448;2023-05-10T05:10:27;12.00;1.00
18741;DHT22;9499;52.472;13.448;2023-05-10T05:12:53;12.00;1.00
18741;DHT22;9499;52.472;13.448;2023-05-10T05:15:20;12.10;99.90
18741;DHT22;9499;52.472;13.448;2023-05-10T05:17:47;12.20;99.90
18741;DHT22;9499;52.472;13.448;2023-05-10T05:20:13;12.20;99.90
18741;DHT22;9499;52.472;13.448;2023-05-10T05:22:40;12.30;99.90
18741;DHT22;9499;52.472;13.448;2023-05-10T05:25:07;12.30;99.90
18741;DHT22;9499;52.472;13.448;2023-05-10T05:27:35;12.40;1.00
18741;DHT22;9499;52.472;13.448;2023-05-10T05:30:01;12.50;1.00
18741;DHT22;9499;52.472;13.448;2023-05-10T05:32:28;12.50;1.00
18741;DHT22;9499;52.472;13.448;2023-05-10T05:34:55;12.50;1.00
18741;DHT22;9499;52.472;13.448;2023-05-10T05:37:21;12.60;1.00
18741;DHT22;9499;52.472;13.448;2023-05-10T05:39:48;12.70;1.00
18741;DHT22;9499;52.472;13.448;2023-05-10T05:42:14;12.70;1.00
18741;DHT22;9499;52.472;13.448;2023-05-10T05:44:44;12.90;99.90
18741;DHT22;9499;52.472;13.448;2023-05-10T05:47:10;12.90;99.90
18741;DHT22;9499;52.472;13.448;2023-05-10T05:49:37;13.00;99.90
18741;DHT22;9499;52.472;13.448;2023-05-10T05:52:04;13.00;99.90
18741;DHT22;9499;52.472;13.448;2023-05-10T05:54:31;13.10;99.90
18741;DHT22;9499;52.472;13.448;2023-05-10T05:56:58;13.10;1.00
18741;DHT22;9499;52.472;13.448;2023-05-10T05:59:25;13.20;1.00
18741;DHT22;9499;52.472;13.448;2023-05-10T06:01:53;13.30;1.00
18741;DHT22;9499;52.472;13.448;2023-05-10T06:04:19;13.30;1.00
18741;DHT22;9499;52.472;13.448;2023-05-10T06:06:46;13.30;1.00
18741;DHT22;9499;52.472;13.448;2023-05-10T06:09:12;13.40;1.00
18741;DHT22;9499;52.472;13.448;2023-05-10T06:11:39;13.50;1.00
18741;DHT22;9499;52.472;13.448;2023-05-10T06:14:06;13.50;1.00
18741;DHT22;9499;52.472;13.448;2023-05-10T06:16:33;13.60;1.00
18741;DHT22;9499;52.472;13.448;2023-05-10T06:19:01;13.60;1.00
18741;DHT22;9499;52.472;13.448;2023-05-10T06:21:27;13.70;1.00
18741;DHT22;9499;52.472;13.448;2023-05-10T06:23:54;13.70;1.00
18741;DHT22;9499;52.472;13.448;2023-05-10T06:26:20;13.80;1.00
18741;DHT22;9499;52.472;13.448;2023-05-10T06:28:47;13.80;1.00
18741;DHT22;9499;52.472;13.448;2023-05-10T06:31:13;13.90;1.00
18741;DHT22;9499;52.472;13.448;2023-05-10T06:33:41;14.00;1.00
18741;DHT22;9499;52.472;13.448;2023-05-10T06:36:09;14.10;1.00
18741;DHT22;9499;52.472;13.448;2023-05-10T06:38:35;14.20;1.00
18741;DHT22;9499;52.472;13.448;2023-05-10T06:41:02;14.20;99.90
18741;DHT22;9499;52.472;13.448;2023-05-10T06:43:29;14.30;99.90
18741;DHT22;9499;52.472;13.448;2023-05-10T06:45:55;14.40;99.90
18741;DHT22;9499;52.472;13.448;2023-05-10T06:48:22;14.40;99.90
18741;DHT22;9499;52.472;13.448;2023-05-10T06:50:48;14.50;99.90
18741;DHT22;9499;52.472;13.448;2023-05-10T06:53:16;14.50;99.90
18741;DHT22;9499;52.472;13.448;2023-05-10T06:55:43;14.60;99.90
18741;DHT22;9499;52.472;13.448;2023-05-10T06:58:09;14.70;99.90
18741;DHT22;9499;52.472;13.448;2023-05-10T07:00:36;14.70;75.20
18741;DHT22;9499;52.472;13.448;2023-05-10T07:03:05;14.80;99.90
18741;DHT22;9499;52.472;13.448;2023-05-10T07:05:32;14.90;1.00
18741;DHT22;9499;52.472;13.448;2023-05-10T07:07:58;14.90;1.00
18741;DHT22;9499;52.472;13.448;2023-05-10T07:10:26;15.00;1.00
18741;DHT22;9499;52.472;13.448;2023-05-10T07:12:53;15.00;1.00
18741;DHT22;9499;52.472;13.448;2023-05-10T07:15:19;15.10;1.00
18741;DHT22;9499;52.472;13.448;2023-05-10T07:17:46;15.30;1.00
18741;DHT22;9499;52.472;13.448;2023-05-10T07:20:13;15.30;1.00
18741;DHT22;9499;52.472;13.448;2023-05-10T07:22:39;15.30;1.00
18741;DHT22;9499;52.472;13.448;2023-05-10T07:25:06;15.40;1.00
18741;DHT22;9499;52.472;13.448;2023-05-10T07:27:34;15.40;1.00
18741;DHT22;9499;52.472;13.448;2023-05-10T07:30:01;15.40;1.00
18741;DHT22;9499;52.472;13.448;2023-05-10T07:32:27;15.50;1.00
18741;DHT22;9499;52.472;13.448;2023-05-10T07:34:54;15.60;1.00
18741;DHT22;9499;52.472;13.448;2023-05-10T07:37:20;15.70;1.00
18741;DHT22;9499;52.472;13.448;2023-05-10T07:39:47;15.80;1.00
18741;DHT22;9499;52.472;13.448;2023-05-10T07:42:13;15.90;1.00
18741;DHT22;9499;52.472;13.448;2023-05-10T07:44:41;15.90;1.00
18741;DHT22;9499;52.472;13.448;2023-05-10T07:47:08;16.00;1.00
18741;DHT22;9499;52.472;13.448;2023-05-10T07:49:35;16.10;1.00
18741;DHT22;9499;52.472;13.448;2023-05-10T07:52:03;16.20;1.00
18741;DHT22;9499;52.472;13.448;2023-05-10T07:54:29;16.30;1.00
18741;DHT22;9499;52.472;13.448;2023-05-10T07:56:56;16.40;99.90
18741;DHT22;9499;52.472;13.448;2023-05-10T07:59:22;16.40;99.90
18741;DHT22;9499;52.472;13.448;2023-05-10T08:01:50;16.50;99.90
18741;DHT22;9499;52.472;13.448;2023-05-10T08:04:16;16.50;99.90
18741;DHT22;9499;52.472;13.448;2023-05-10T08:06:43;16.60;99.90
18741;DHT22;9499;52.472;13.448;2023-05-10T08:09:09;16.60;99.90
18741;DHT22;9499;52.472;13.448;2023-05-10T08:11:36;16.70;99.90
18741;DHT22;9499;52.472;13.448;2023-05-10T08:14:02;16.70;99.90
18741;DHT22;9499;52.472;13.448;2023-05-10T08:16:29;16.80;99.90
18741;DHT22;9499;52.472;13.448;2023-05-10T08:18:57;16.80;99.90
18741;DHT22;9499;52.472;13.448;2023-05-10T08:21:23;16.90;99.90
18741;DHT22;9499;52.472;13.448;2023-05-10T08:23:50;16.90;99.90
18741;DHT22;9499;52.472;13.448;2023-05-10T08:26:16;16.90;99.90
18741;DHT22;9499;52.472;13.448;2023-05-10T08:28:43;17.00;99.90
18741;DHT22;9499;52.472;13.448;2023-05-10T08:31:09;17.10;99.90
18741;DHT22;9499;52.472;13.448;2023-05-10T08:33:36;17.10;92.70
18741;DHT22;9499;52.472;13.448;2023-05-10T08:36:04;17.10;99.90
18741;DHT22;9499;52.472;13.448;2023-05-10T08:38:30;17.20;99.90
18741;DHT22;9499;52.472;13.448;2023-05-10T08:40:57;17.30;70.40
18741;DHT22;9499;52.472;13.448;2023-05-10T08:43:27;17.30;37.80
18741;DHT22;9499;52.472;13.448;2023-05-10T08:45:54;17.40;42.80
18741;DHT22;9499;52.472;13.448;2023-05-10T08:48:23;17.40;13.70
18741;DHT22;9499;52.472;13.448;2023-05-10T08:50:52;17.50;1.00
18741;DHT22;9499;52.472;13.448;2023-05-10T08:53:24;17.50;1.00
18741;DHT22;9499;52.472;13.448;2023-05-10T08:55:51;17.70;34.20
18741;DHT22;9499;52.472;13.448;2023-05-10T08:58:19;17.80;1.00
18741;DHT22;9499;52.472;13.448;2023-05-10T09:00:48;17.80;1.00
18741;DHT22;9499;52.472;13.448;2023-05-10T09:03:15;17.80;1.00
18741;DHT22;9499;52.472;13.448;2023-05-10T09:05:42;17.90;1.00
18741;DHT22;9499;52.472;13.448;2023-05-10T09:08:10;18.00;1.00
18741;DHT22;9499;52.472;13.448;2023-05-10T09:10:39;18.10;1.00
18741;DHT22;9499;52.472;13.448;2023-05-10T09:13:08;18.10;1.00
18741;DHT22;9499;52.472;13.448;2023-05-10T09:15:35;18.10;1.00
18741;DHT22;9499;52.472;13.448;2023-05-10T09:18:02;18.10;1.00
18741;DHT22;9499;52.472;13.448;2023-05-10T09:20:29;18.20;1.00
18741;DHT22;9499;52.472;13.448;2023-05-10T09:22:56;18.30;1.00
18741;DHT22;9499;52.472;13.448;2023-05-10T09:25:22;18.30;1.00
18741;DHT22;9499;52.472;13.448;2023-05-10T09:27:51;18.30;1.00
18741;DHT22;9499;52.472;13.448;2023-05-10T09:30:24;18.40;1.00
18741;DHT22;9499;52.472;13.448;2023-05-10T09:32:50;18.60;1.00
18741;DHT22;9499;52.472;13.448;2023-05-10T09:35:19;18.70;1.00
18741;DHT22;9499;52.472;13.448;2023-05-10T09:37:47;18.80;1.00
18741;DHT22;9499;52.472;13.448;2023-05-10T09:40:15;18.90;1.00
18741;DHT22;9499;52.472;13.448;2023-05-10T09:42:50;18.90;1.00
18741;DHT22;9499;52.472;13.448;2023-05-10T09:45:18;18.90;1.00
18741;DHT22;9499;52.472;13.448;2023-05-10T09:47:45;18.90;1.00
18741;DHT22;9499;52.472;13.448;2023-05-10T09:50:12;19.00;1.00
18741;DHT22;9499;52.472;13.448;2023-05-10T09:52:47;19.10;1.00
18741;DHT22;9499;52.472;13.448;2023-05-10T09:55:14;19.20;1.00
18741;DHT22;9499;52.472;13.448;2023-05-10T09:57:41;19.30;1.00
18741;DHT22;9499;52.472;13.448;2023-05-10T10:00:08;19.40;1.00
18741;DHT22;9499;52.472;13.448;2023-05-10T10:02:37;19.50;1.00
18741;DHT22;9499;52.472;13.448;2023-05-10T10:05:06;19.70;1.00
18741;DHT22;9499;52.472;13.448;2023-05-10T10:07:34;20.00;1.00
18741;DHT22;9499;52.472;13.448;2023-05-10T10:10:00;20.30;1.00
18741;DHT22;9499;52.472;13.448;2023-05-10T10:12:27;20.60;1.00
18741;DHT22;9499;52.472;13.448;2023-05-10T10:14:55;20.70;1.00
18741;DHT22;9499;52.472;13.448;2023-05-10T10:17:24;20.90;1.00
18741;DHT22;9499;52.472;13.448;2023-05-10T10:19:52;21.20;1.00
18741;DHT22;9499;52.472;13.448;2023-05-10T10:22:19;21.40;1.00
18741;DHT22;9499;52.472;13.448;2023-05-10T10:24:45;21.60;1.00
18741;DHT22;9499;52.472;13.448;2023-05-10T10:27:19;21.70;1.00
18741;DHT22;9499;52.472;13.448;2023-05-10T10:29:52;21.80;1.00
18741;DHT22;9499;52.472;13.448;2023-05-10T10:32:41;22.00;99.90
18741;DHT22;9499;52.472;13.448;2023-05-10T10:35:12;22.20;99.90
18741;DHT22;9499;52.472;13.448;2023-05-10T10:37:43;22.20;99.90
18741;DHT22;9499;52.472;13.448;2023-05-10T10:40:27;22.20;99.90
18741;DHT22;9499;52.472;13.448;2023-05-10T10:42:54;22.30;99.90
18741;DHT22;9499;52.472;13.448;2023-05-10T10:45:22;22.50;99.90
18741;DHT22;9499;52.472;13.448;2023-05-10T10:47:51;22.70;99.90
18741;DHT22;9499;52.472;13.448;2023-05-10T10:50:21;22.60;99.90
18741;DHT22;9499;52.472;13.448;2023-05-10T10:52:47;22.60;99.90
18741;DHT22;9499;52.472;13.448;2023-05-10T10:55:17;22.80;99.90
18741;DHT22;9499;52.472;13.448;2023-05-10T10:57:45;22.60;99.90
18741;DHT22;9499;52.472;13.448;2023-05-10T11:00:21;22.70;99.90
18741;DHT22;9499;52.472;13.448;2023-05-10T11:02:57;22.70;99.90
18741;DHT22;9499;52.472;13.448;2023-05-10T11:08:14;23.10;99.90
18741;DHT22;9499;52.472;13.448;2023-05-10T11:10:50;23.20;99.90
18741;DHT22;9499;52.472;13.448;2023-05-10T11:13:27;23.10;99.90
18741;DHT22;9499;52.472;13.448;2023-05-10T11:15:54;22.90;99.90
18741;DHT22;9499;52.472;13.448;2023-05-10T11:18:25;22.90;99.90
18741;DHT22;9499;52.472;13.448;2023-05-10T11:20:52;23.20;99.90
18741;DHT22;9499;52.472;13.448;2023-05-10T11:23:20;23.20;99.90
18741;DHT22;9499;52.472;13.448;2023-05-10T11:25:48;23.20;99.90
18741;DHT22;9499;52.472;13.448;2023-05-10T11:28:17;23.10;99.90
18741;DHT22;9499;52.472;13.448;2023-05-10T11:30:44;23.10;99.90
18741;DHT22;9499;52.472;13.448;2023-05-10T11:33:15;23.30;99.90
18741;DHT22;9499;52.472;13.448;2023-05-10T11:35:43;23.40;99.90
18741;DHT22;9499;52.472;13.448;2023-05-10T11:38:11;23.50;99.90
18741;DHT22;9499;52.472;13.448;2023-05-10T11:40:38;23.70;99.90
18741;DHT22;9499;52.472;13.448;2023-05-10T11:43:05;24.00;99.90
18741;DHT22;9499;52.472;13.448;2023-05-10T11:45:32;24.30;99.90
18741;DHT22;9499;52.472;13.448;2023-05-10T11:47:59;24.50;99.90
18741;DHT22;9499;52.472;13.448;2023-05-10T11:50:26;24.50;99.90
18741;DHT22;9499;52.472;13.448;2023-05-10T11:52:55;24.50;99.90
18741;DHT22;9499;52.472;13.448;2023-05-10T11:55:22;24.50;99.90
18741;DHT22;9499;52.472;13.448;2023-05-10T11:57:51;24.60;99.90
18741;DHT22;9499;52.472;13.448;2023-05-10T12:00:18;24.60;99.90
18741;DHT22;9499;52.472;13.448;2023-05-10T12:02:45;24.70;99.90
18741;DHT22;9499;52.472;13.448;2023-05-10T12:05:12;24.60;99.90
18741;DHT22;9499;52.472;13.448;2023-05-10T12:07:38;24.60;99.90
18741;DHT22;9499;52.472;13.448;2023-05-10T12:10:08;24.70;99.90
18741;DHT22;9499;52.472;13.448;2023-05-10T12:12:37;25.00;99.90
18741;DHT22;9499;52.472;13.448;2023-05-10T12:15:05;25.00;99.90
18741;DHT22;9499;52.472;13.448;2023-05-10T12:17:32;25.00;99.90
18741;DHT22;9499;52.472;13.448;2023-05-10T12:20:12;25.00;99.90
18741;DHT22;9499;52.472;13.448;2023-05-10T12:22:38;25.10;99.90
18741;DHT22;9499;52.472;13.448;2023-05-10T12:25:08;25.00;99.90
18741;DHT22;9499;52.472;13.448;2023-05-10T12:27:35;25.00;99.90
18741;DHT22;9499;52.472;13.448;2023-05-10T12:30:02;25.00;99.90
18741;DHT22;9499;52.472;13.448;2023-05-10T12:32:38;25.20;99.90
18741;DHT22;9499;52.472;13.448;2023-05-10T12:35:06;25.30;99.90
18741;DHT22;9499;52.472;13.448;2023-05-10T12:37:33;25.20;99.90
18741;DHT22;9499;52.472;13.448;2023-05-10T12:40:07;25.00;99.90
18741;DHT22;9499;52.472;13.448;2023-05-10T12:42:34;25.00;99.90
18741;DHT22;9499;52.472;13.448;2023-05-10T12:45:01;25.20;99.90
18741;DHT22;9499;52.472;13.448;2023-05-10T12:47:28;25.30;99.90
18741;DHT22;9499;52.472;13.448;2023-05-10T12:49:54;25.40;99.90
18741;DHT22;9499;52.472;13.448;2023-05-10T12:52:21;25.40;99.90
18741;DHT22;9499;52.472;13.448;2023-05-10T12:54:47;25.50;99.90
18741;DHT22;9499;52.472;13.448;2023-05-10T12:57:16;25.70;99.90
18741;DHT22;9499;52.472;13.448;2023-05-10T12:59:43;25.70;99.90
18741;DHT22;9499;52.472;13.448;2023-05-10T13:02:09;25.60;99.90
18741;DHT22;9499;52.472;13.448;2023-05-10T13:04:36;25.60;99.90
18741;DHT22;9499;52.472;13.448;2023-05-10T13:07:05;25.50;99.90
18741;DHT22;9499;52.472;13.448;2023-05-10T13:09:31;25.40;99.90
18741;DHT22;9499;52.472;13.448;2023-05-10T13:11:58;25.50;99.90
18741;DHT22;9499;52.472;13.448;2023-05-10T13:14:26;25.70;99.90
18741;DHT22;9499;52.472;13.448;2023-05-10T13:16:53;25.90;99.90
18741;DHT22;9499;52.472;13.448;2023-05-10T13:19:19;26.00;99.90
18741;DHT22;9499;52.472;13.448;2023-05-10T13:21:46;26.10;99.90
18741;DHT22;9499;52.472;13.448;2023-05-10T13:24:13;26.20;99.90
18741;DHT22;9499;52.472;13.448;2023-05-10T13:26:39;26.40;99.90
18741;DHT22;9499;52.472;13.448;2023-05-10T13:29:06;26.60;99.90
18741;DHT22;9499;52.472;13.448;2023-05-10T13:31:34;26.70;96.20
18741;DHT22;9499;52.472;13.448;2023-05-10T13:34:01;26.70;93.90
18741;DHT22;9499;52.472;13.448;2023-05-10T13:36:27;26.80;90.80
18741;DHT22;9499;52.472;13.448;2023-05-10T13:38:54;26.90;90.00
18741;DHT22;9499;52.472;13.448;2023-05-10T13:41:21;27.00;85.20
18741;DHT22;9499;52.472;13.448;2023-05-10T13:43:47;26.90;74.80
18741;DHT22;9499;52.472;13.448;2023-05-10T13:46:14;27.00;72.90
18741;DHT22;9499;52.472;13.448;2023-05-10T13:48:42;26.70;64.30
18741;DHT22;9499;52.472;13.448;2023-05-10T13:51:08;26.60;60.80
18741;DHT22;9499;52.472;13.448;2023-05-10T13:53:35;26.60;56.20
18741;DHT22;9499;52.472;13.448;2023-05-10T13:56:01;26.70;50.90
18741;DHT22;9499;52.472;13.448;2023-05-10T13:58:28;26.90;48.50
18741;DHT22;9499;52.472;13.448;2023-05-10T14:00:55;27.00;42.90
18741;DHT22;9499;52.472;13.448;2023-05-10T14:03:22;27.20;44.90
18741;DHT22;9499;52.472;13.448;2023-05-10T14:05:50;27.50;44.80
18741;DHT22;9499;52.472;13.448;2023-05-10T14:08:16;27.60;38.90
18741;DHT22;9499;52.472;13.448;2023-05-10T14:10:43;27.60;33.90
18741;DHT22;9499;52.472;13.448;2023-05-10T14:13:09;27.60;32.80
18741;DHT22;9499;52.472;13.448;2023-05-10T14:15:36;27.30;31.00
18741;DHT22;9499;52.472;13.448;2023-05-10T14:18:02;27.50;25.80
18741;DHT22;9499;52.472;13.448;2023-05-10T14:20:29;27.50;17.80
18741;DHT22;9499;52.472;13.448;2023-05-10T14:22:58;27.50;18.30
18741;DHT22;9499;52.472;13.448;2023-05-10T14:25:25;27.60;17.80
18741;DHT22;9499;52.472;13.448;2023-05-10T14:27:52;27.50;12.20
18741;DHT22;9499;52.472;13.448;2023-05-10T14:30:20;27.50;11.60
18741;DHT22;9499;52.472;13.448;2023-05-10T14:32:46;27.70;10.20
18741;DHT22;9499;52.472;13.448;2023-05-10T14:35:12;27.70;8.30
18741;DHT22;9499;52.472;13.448;2023-05-10T14:37:39;28.00;7.00
18741;DHT22;9499;52.472;13.448;2023-05-10T14:40:08;27.70;21.30
18741;DHT22;9499;52.472;13.448;2023-05-10T14:42:35;27.20;2.60
18741;DHT22;9499;52.472;13.448;2023-05-10T14:45:02;27.00;1.00
18741;DHT22;9499;52.472;13.448;2023-05-10T14:47:28;26.90;1.00
18741;DHT22;9499;52.472;13.448;2023-05-10T14:49:55;26.80;1.00
18741;DHT22;9499;52.472;13.448;2023-05-10T14:52:21;27.00;1.00
18741;DHT22;9499;52.472;13.448;2023-05-10T14:54:48;26.90;1.00
18741;DHT22;9499;52.472;13.448;2023-05-10T14:57:16;26.70;1.00
18741;DHT22;9499;52.472;13.448;2023-05-10T14:59:42;26.40;1.00
18741;DHT22;9499;52.472;13.448;2023-05-10T15:02:09;26.30;1.00
18741;DHT22;9499;52.472;13.448;2023-05-10T15:04:35;26.40;1.00
18741;DHT22;9499;52.472;13.448;2023-05-10T15:07:02;26.30;1.00
18741;DHT22;9499;52.472;13.448;2023-05-10T15:09:29;26.50;1.70
18741;DHT22;9499;52.472;13.448;2023-05-10T15:11:55;26.80;1.00
18741;DHT22;9499;52.472;13.448;2023-05-10T15:14:23;27.00;1.00
18741;DHT22;9499;52.472;13.448;2023-05-10T15:16:50;27.10;1.00
18741;DHT22;9499;52.472;13.448;2023-05-10T15:19:17;27.10;1.00
18741;DHT22;9499;52.472;13.448;2023-05-10T15:21:43;26.70;1.00
18741;DHT22;9499;52.472;13.448;2023-05-10T15:24:10;26.40;1.00
18741;DHT22;9499;52.472;13.448;2023-05-10T15:26:36;26.10;1.00
18741;DHT22;9499;52.472;13.448;2023-05-10T15:29:03;25.80;1.00
18741;DHT22;9499;52.472;13.448;2023-05-10T15:31:31;25.60;1.00
18741;DHT22;9499;52.472;13.448;2023-05-10T15:34:00;25.40;1.00
18741;DHT22;9499;52.472;13.448;2023-05-10T15:36:26;25.30;1.00
18741;DHT22;9499;52.472;13.448;2023-05-10T15:38:53;25.30;1.00
18741;DHT22;9499;52.472;13.448;2023-05-10T15:41:21;25.10;1.00
18741;DHT22;9499;52.472;13.448;2023-05-10T15:43:47;25.00;1.10
18741;DHT22;9499;52.472;13.448;2023-05-10T15:46:14;25.00;1.00
18741;DHT22;9499;52.472;13.448;2023-05-10T15:48:42;25.30;1.00
18741;DHT22;9499;52.472;13.448;2023-05-10T15:51:08;25.60;1.00